createdAt,value
2019-05-22T02:18:23.317Z,0.70
2019-05-22T04:34:10.967Z,0.57
2019-05-22T04:36:16.420Z,0.85
2019-05-22T04:38:21.670Z,0.70
2019-05-22T04:40:53.065Z,0.60
2019-05-22T04:42:59.812Z,0.70
2019-05-22T04:45:09.873Z,0.60
2019-05-22T04:47:14.751Z,0.40
2019-05-22T04:49:19.563Z,0.60
2019-05-22T04:51:29.822Z,0.90
2019-05-22T04:53:34.615Z,0.70
2019-05-22T04:55:39.357Z,0.68
2019-05-22T04:57:44.318Z,0.60
2019-05-22T04:59:49.447Z,0.65
2019-05-22T05:01:54.659Z,0.60
2019-05-22T05:03:59.994Z,0.50
2019-05-22T05:06:07.076Z,0.60
2019-05-22T05:08:13.389Z,1.10
2019-05-22T05:10:18.194Z,0.65
2019-05-22T05:12:23.146Z,0.78
2019-05-22T05:14:27.876Z,0.82
2019-05-22T05:16:32.671Z,0.40
2019-05-22T05:18:38.406Z,0.82
2019-05-22T05:20:43.198Z,0.55
2019-05-22T05:22:48.611Z,0.93
2019-05-22T05:24:55.699Z,0.70
2019-05-22T05:27:00.504Z,0.50
2019-05-22T05:29:07.030Z,0.50
2019-05-22T05:31:12.014Z,0.53
2019-05-22T05:33:16.735Z,0.50
2019-05-22T05:35:22.030Z,0.40
2019-05-22T05:37:27.273Z,0.40
2019-05-22T05:40:08.227Z,0.60
2019-05-22T05:42:13.127Z,0.50
2019-05-22T05:44:17.886Z,0.40
2019-05-22T05:46:22.628Z,0.50
2019-05-22T05:48:28.842Z,0.40
2019-05-22T05:50:39.533Z,0.40
2019-05-22T05:52:41.836Z,0.50
2019-05-22T05:54:48.066Z,0.57
2019-05-22T05:56:55.150Z,0.47
2019-05-22T05:59:00.166Z,0.40
2019-05-22T06:01:26.110Z,0.55
2019-05-22T06:03:32.398Z,0.50
2019-05-22T06:05:37.394Z,0.40
2019-05-22T06:07:42.116Z,0.40
2019-05-22T06:09:48.321Z,0.50
2019-05-22T06:11:55.783Z,0.50
2019-05-22T06:14:00.490Z,0.40
2019-05-22T06:16:24.709Z,0.40
2019-05-22T06:18:35.430Z,0.43
2019-05-22T06:20:39.934Z,0.40
2019-05-22T06:22:46.693Z,0.40
2019-05-22T06:24:58.246Z,0.50
2019-05-22T06:27:18.737Z,0.40
2019-05-22T06:29:28.034Z,0.40
2019-05-22T06:31:40.093Z,0.63
2019-05-22T06:33:44.870Z,0.40
2019-05-22T06:35:50.491Z,0.40
2019-05-22T06:38:02.765Z,0.50
2019-05-22T06:40:09.266Z,0.40
2019-05-22T06:42:13.986Z,0.57
2019-05-22T06:44:30.750Z,0.50
2019-05-22T06:46:44.685Z,0.40
2019-05-22T06:48:49.137Z,0.30
2019-05-22T06:50:53.564Z,0.40
2019-05-22T06:53:09.483Z,0.80
2019-05-22T06:55:05.943Z,0.40
2019-05-22T06:57:38.894Z,0.47
2019-05-22T06:59:44.785Z,0.40
2019-05-22T07:01:49.367Z,0.50
2019-05-22T07:03:53.837Z,0.40
2019-05-22T07:05:58.419Z,0.40
2019-05-22T07:08:04.226Z,0.40
2019-05-22T07:10:11.866Z,0.50
2019-05-22T07:12:17.978Z,0.40
2019-05-22T07:14:23.077Z,0.40
2019-05-22T07:16:28.135Z,0.73
2019-05-22T07:18:33.088Z,0.40
2019-05-22T07:20:38.943Z,0.40
2019-05-22T07:22:43.691Z,0.40
2019-05-22T07:24:48.687Z,0.47
2019-05-22T07:26:53.314Z,0.40
2019-05-22T07:29:01.591Z,0.40
2019-05-22T07:31:05.807Z,0.30
2019-05-22T07:33:10.383Z,0.33
2019-05-22T07:35:15.233Z,0.30
2019-05-22T07:37:19.809Z,0.47
2019-05-22T07:39:24.311Z,0.30
2019-05-22T07:41:28.882Z,0.40
2019-05-22T07:43:33.591Z,0.40
2019-05-22T07:45:38.882Z,0.40
2019-05-22T07:47:44.716Z,0.30
2019-05-22T07:49:49.409Z,0.30
2019-05-22T07:52:01.215Z,0.47
2019-05-22T07:54:00.346Z,0.40
2019-05-22T07:56:07.267Z,0.37
2019-05-22T07:58:15.889Z,0.40
2019-05-22T08:00:20.366Z,0.30
2019-05-22T08:02:25.459Z,0.40
2019-05-22T08:04:31.438Z,0.30
2019-05-22T08:06:35.923Z,0.50
2019-05-22T08:08:42.164Z,0.30
2019-05-22T08:10:46.709Z,0.30
2019-05-22T08:12:51.351Z,0.40
2019-05-22T08:14:55.839Z,0.40
2019-05-22T08:17:01.152Z,0.40
2019-05-22T08:19:05.638Z,0.40
2019-05-22T08:21:10.553Z,0.40
2019-05-22T08:23:15.755Z,0.30
2019-05-22T08:25:20.307Z,0.40
2019-05-22T08:27:24.850Z,0.33
2019-05-22T08:29:29.374Z,0.40
2019-05-22T08:31:34.247Z,0.40
2019-05-22T08:33:39.060Z,0.60
2019-05-22T08:35:44.575Z,0.30
2019-05-22T08:37:49.951Z,0.30
2019-05-22T08:39:54.434Z,0.40
2019-05-22T08:41:59.046Z,0.30
2019-05-22T08:44:16.180Z,0.40
2019-05-22T08:46:12.641Z,0.40
2019-05-22T08:48:17.343Z,0.37
2019-05-22T08:50:23.474Z,0.30
2019-05-22T08:52:29.118Z,0.40
2019-05-22T08:54:34.592Z,0.40
2019-05-22T08:56:40.569Z,0.37
2019-05-22T08:58:45.056Z,0.30
2019-05-22T09:00:49.554Z,0.50
2019-05-22T09:02:54.162Z,0.40
2019-05-22T09:04:58.720Z,0.47
2019-05-22T09:07:03.211Z,0.30
2019-05-22T09:09:07.762Z,0.30
2019-05-22T09:11:12.479Z,0.40
2019-05-22T09:13:17.032Z,0.40
2019-05-22T09:15:21.998Z,0.30
2019-05-22T09:17:26.471Z,0.60
2019-05-22T09:19:31.351Z,0.40
2019-05-22T09:21:36.278Z,0.40
2019-05-22T09:23:41.932Z,0.63
2019-05-22T09:25:46.495Z,0.30
2019-05-22T09:27:51.761Z,0.40
2019-05-22T09:29:56.279Z,0.50
2019-05-22T09:32:01.023Z,0.70
2019-05-22T09:34:05.526Z,0.40
2019-05-22T09:36:10.241Z,0.30
2019-05-22T09:38:14.878Z,0.57
2019-05-22T09:40:19.456Z,0.30
2019-05-22T09:42:24.095Z,0.30
2019-05-22T09:44:28.646Z,0.30
2019-05-22T09:46:33.272Z,0.40
2019-05-22T09:48:38.294Z,0.40
2019-05-22T09:50:42.975Z,0.40
2019-05-22T09:52:57.065Z,0.40
2019-05-22T09:54:53.891Z,0.40
2019-05-22T09:56:58.455Z,0.40
2019-05-22T09:59:03.323Z,0.43
2019-05-22T10:01:11.758Z,0.40
2019-05-22T10:03:15.072Z,0.40
2019-05-22T10:05:19.877Z,0.60
2019-05-22T10:07:24.435Z,0.40
2019-05-22T10:09:28.947Z,0.40
2019-05-22T10:11:33.418Z,0.40
2019-05-22T10:13:38.240Z,0.40
2019-05-22T10:15:42.908Z,0.40
2019-05-22T10:17:49.666Z,0.40
2019-05-22T10:19:54.329Z,0.30
2019-05-22T10:21:58.898Z,0.30
2019-05-22T10:24:03.711Z,0.40
2019-05-22T10:26:08.435Z,0.40
2019-05-22T10:28:12.952Z,0.60
2019-05-22T10:30:20.179Z,0.40
2019-05-22T10:32:24.659Z,0.40
2019-05-22T10:34:29.246Z,0.30
2019-05-22T10:36:33.715Z,0.50
2019-05-22T10:38:38.403Z,0.30
2019-05-22T10:40:42.882Z,0.40
2019-05-22T10:42:47.580Z,0.40
2019-05-22T10:44:52.111Z,0.40
2019-05-22T10:46:56.680Z,0.60
2019-05-22T10:49:01.231Z,0.50
2019-05-22T10:51:05.735Z,0.40
2019-05-22T10:53:10.246Z,0.70
2019-05-22T10:55:16.258Z,0.40
2019-05-22T10:57:22.239Z,0.50
2019-05-22T10:59:26.672Z,0.40
2019-05-22T11:01:31.622Z,0.50
2019-05-22T11:03:36.406Z,0.40
2019-05-22T11:05:41.343Z,0.40
2019-05-22T11:07:46.136Z,0.40
2019-05-22T11:09:50.756Z,0.60
2019-05-22T11:11:55.903Z,0.40
2019-05-22T11:14:01.988Z,0.50
2019-05-22T11:16:07.092Z,0.53
2019-05-22T11:18:11.772Z,0.67
2019-05-22T11:20:16.358Z,0.60
2019-05-22T11:22:22.967Z,0.43
2019-05-22T11:24:28.399Z,0.40
2019-05-22T11:26:33.631Z,0.50
2019-05-22T11:28:39.512Z,0.50
2019-05-22T11:30:44.743Z,0.40
2019-05-22T11:32:49.910Z,0.40
2019-05-22T11:34:55.266Z,0.50
2019-05-22T11:37:00.391Z,0.43
2019-05-22T11:39:08.927Z,0.50
2019-05-22T11:41:16.155Z,0.50
2019-05-22T11:43:21.442Z,0.50
2019-05-22T11:45:26.695Z,0.40
2019-05-22T11:47:31.936Z,0.57
2019-05-22T11:49:37.439Z,0.50
2019-05-22T11:51:42.609Z,0.50
2019-05-22T11:53:47.893Z,0.40
2019-05-22T11:55:53.399Z,0.60
2019-05-22T11:57:58.560Z,0.63
2019-05-22T12:00:03.626Z,0.60
2019-05-22T12:02:09.708Z,0.60
2019-05-22T12:04:14.575Z,0.57
2019-05-22T12:06:20.047Z,0.57
2019-05-22T12:08:24.830Z,0.50
2019-05-22T12:10:30.298Z,0.60
2019-05-22T12:12:35.615Z,0.57
2019-05-22T12:14:40.202Z,1.00
2019-05-22T12:16:44.880Z,0.60
2019-05-22T12:18:49.614Z,0.60
2019-05-22T12:20:54.519Z,0.70
2019-05-22T12:22:59.412Z,0.93
2019-05-22T12:25:04.821Z,0.80
2019-05-22T12:27:10.244Z,0.80
2019-05-22T12:29:17.362Z,0.70
2019-05-22T12:31:22.365Z,0.50
2019-05-22T12:33:26.969Z,0.63
2019-05-22T12:35:32.135Z,1.00
2019-05-22T12:37:36.607Z,0.83
2019-05-22T12:39:41.246Z,1.20
2019-05-22T12:41:47.420Z,0.80
2019-05-22T12:43:52.938Z,0.60
2019-05-22T12:45:58.663Z,0.60
2019-05-22T12:48:05.908Z,0.70
2019-05-22T12:50:13.558Z,0.77
2019-05-22T12:52:19.285Z,0.60
2019-05-22T12:54:24.525Z,0.60
2019-05-22T12:56:30.939Z,0.63
2019-05-22T12:58:36.763Z,0.60
2019-05-22T13:00:42.101Z,0.70
2019-05-22T13:02:47.605Z,0.60
2019-05-22T13:04:53.495Z,0.60
2019-05-22T13:06:59.927Z,1.03
2019-05-22T13:09:09.191Z,0.60
2019-05-22T13:11:15.197Z,0.80
2019-05-22T13:13:20.499Z,0.60
2019-05-22T13:15:26.054Z,0.60
2019-05-22T13:17:33.047Z,0.70
2019-05-22T13:19:39.568Z,0.63
2019-05-22T13:21:46.274Z,0.70
2019-05-22T13:23:53.378Z,0.70
2019-05-22T13:25:58.763Z,0.70
2019-05-22T13:28:05.465Z,0.43
2019-05-22T13:30:12.996Z,0.83
2019-05-22T13:32:19.950Z,0.57
2019-05-22T13:34:28.303Z,0.77
2019-05-22T13:36:34.514Z,0.50
2019-05-22T13:38:39.755Z,0.50
2019-05-22T13:40:45.342Z,0.60
2019-05-22T13:42:50.479Z,0.70
2019-05-22T13:44:56.083Z,0.73
2019-05-22T13:47:02.387Z,0.70
2019-05-22T13:49:07.996Z,1.30
2019-05-22T13:51:13.839Z,0.80
2019-05-22T13:53:20.826Z,0.80
2019-05-22T13:55:25.966Z,0.70
2019-05-22T13:57:31.178Z,0.80
2019-05-22T13:59:36.322Z,0.50
2019-05-22T14:01:41.445Z,0.63
2019-05-22T14:03:47.533Z,0.70
2019-05-22T14:05:53.058Z,0.80
2019-05-22T14:07:58.304Z,0.87
2019-05-22T14:10:03.807Z,0.70
2019-05-22T14:12:09.155Z,0.60
2019-05-22T14:14:14.508Z,1.23
2019-05-22T14:16:20.548Z,0.97
2019-05-22T14:18:25.894Z,0.50
2019-05-22T14:20:31.036Z,0.70
2019-05-22T14:22:36.230Z,0.60
2019-05-22T14:24:41.408Z,0.80
2019-05-22T14:26:46.982Z,0.73
2019-05-22T14:28:52.132Z,0.67
2019-05-22T14:30:57.497Z,0.60
2019-05-22T14:33:05.193Z,1.00
2019-05-22T14:35:10.806Z,0.87
2019-05-22T14:37:16.382Z,0.50
2019-05-22T14:39:22.860Z,1.07
2019-05-22T14:41:28.154Z,0.60
2019-05-22T14:43:33.275Z,1.40
2019-05-22T14:45:39.038Z,0.63
2019-05-22T14:47:43.778Z,0.70
2019-05-22T14:49:48.264Z,0.63
2019-05-22T14:51:53.596Z,0.70
2019-05-22T14:53:58.584Z,0.80
2019-05-22T14:56:03.605Z,0.67
2019-05-22T14:58:10.595Z,0.60
2019-05-22T15:00:17.648Z,0.87
2019-05-22T15:02:23.272Z,0.60
2019-05-22T15:04:29.999Z,0.60
2019-05-22T15:06:35.448Z,0.40
2019-05-22T15:08:40.596Z,1.13
2019-05-22T15:10:46.089Z,0.80
2019-05-22T15:12:51.766Z,1.30
2019-05-22T15:14:56.966Z,0.60
2019-05-22T15:17:02.140Z,0.90
2019-05-22T15:19:07.636Z,0.63
2019-05-22T15:21:14.842Z,0.50
2019-05-22T15:23:20.834Z,0.80
2019-05-22T15:25:26.832Z,0.60
2019-05-22T15:27:31.939Z,0.90
2019-05-22T15:29:37.067Z,1.37
2019-05-22T15:31:42.182Z,0.73
2019-05-22T15:33:47.368Z,0.90
2019-05-22T15:35:53.660Z,0.77
2019-05-22T15:37:59.690Z,0.90
2019-05-22T15:40:06.912Z,1.00
2019-05-22T15:42:22.114Z,1.10
2019-05-22T15:44:28.004Z,0.80
2019-05-22T15:46:34.287Z,0.63
2019-05-22T15:48:42.898Z,0.80
2019-05-22T15:50:49.730Z,0.70
2019-05-22T15:52:57.178Z,0.63
2019-05-22T15:55:03.920Z,0.77
2019-05-22T15:57:11.195Z,0.57
2019-05-22T15:59:18.583Z,0.93
2019-05-22T16:01:25.319Z,0.90
2019-05-22T16:03:30.808Z,0.60
2019-05-22T16:05:36.550Z,0.63
2019-05-22T16:07:41.786Z,1.10
2019-05-22T16:09:47.479Z,1.10
2019-05-22T16:11:55.381Z,0.70
2019-05-22T16:14:01.864Z,1.10
2019-05-22T16:16:09.425Z,0.63
2019-05-22T16:18:16.119Z,0.80
2019-05-22T16:20:23.911Z,0.70
2019-05-22T16:22:29.595Z,1.07
2019-05-22T16:24:35.596Z,1.20
2019-05-22T16:26:41.914Z,0.60
2019-05-22T16:28:49.123Z,0.90
2019-05-22T16:30:54.802Z,0.73
2019-05-22T16:33:00.467Z,0.87
2019-05-22T16:35:06.814Z,0.70
2019-05-22T16:37:13.506Z,0.80
2019-05-22T16:39:19.104Z,0.87
2019-05-22T16:41:28.033Z,0.80
2019-05-22T16:43:48.012Z,0.60
2019-05-22T16:45:41.346Z,0.80
2019-05-22T16:47:46.843Z,1.00
2019-05-22T16:49:53.739Z,0.90
2019-05-22T16:52:01.057Z,0.90
2019-05-22T16:54:08.333Z,0.73
2019-05-22T16:56:13.674Z,0.80
2019-05-22T16:58:19.838Z,0.90
2019-05-22T17:00:27.059Z,0.90
2019-05-22T17:02:36.514Z,0.90
2019-05-22T17:04:41.731Z,0.60
2019-05-22T17:06:47.555Z,0.83
2019-05-22T17:08:53.183Z,1.10
2019-05-22T17:10:59.443Z,0.97
2019-05-22T17:13:06.035Z,1.20
2019-05-22T17:15:16.886Z,0.80
2019-05-22T17:17:22.563Z,0.87
2019-05-22T17:19:28.864Z,1.20
2019-05-22T17:21:35.000Z,0.90
2019-05-22T17:23:40.570Z,1.00
2019-05-22T17:25:46.978Z,1.30
2019-05-22T17:27:52.480Z,1.20
2019-05-22T17:29:57.845Z,1.13
2019-05-22T17:32:05.078Z,0.70
2019-05-22T17:34:27.972Z,1.50
2019-05-22T17:36:33.232Z,1.20
2019-05-22T17:38:39.277Z,1.20
2019-05-22T17:40:44.503Z,1.13
2019-05-22T17:42:52.383Z,1.03
2019-05-22T17:44:57.720Z,1.07
2019-05-22T17:47:06.271Z,1.00
2019-05-22T17:49:11.325Z,2.07
2019-05-22T17:51:17.275Z,1.20
2019-05-22T17:53:23.222Z,1.60
2019-05-22T17:55:28.971Z,1.40
2019-05-22T17:57:36.980Z,1.67
2019-05-22T17:59:46.422Z,1.80
2019-05-22T18:01:52.117Z,1.20
2019-05-22T18:03:57.351Z,1.80
2019-05-22T18:06:02.620Z,1.43
2019-05-22T18:08:08.199Z,1.67
2019-05-22T18:10:13.631Z,1.70
2019-05-22T18:12:19.995Z,1.40
2019-05-22T18:14:25.585Z,1.77
2019-05-22T18:16:31.754Z,1.40
2019-05-22T18:18:36.880Z,1.67
2019-05-22T18:20:44.133Z,1.77
2019-05-22T18:22:49.482Z,2.00
2019-05-22T18:24:54.954Z,1.80
2019-05-22T18:27:00.610Z,1.87
2019-05-22T18:29:05.881Z,2.10
2019-05-22T18:31:11.340Z,1.90
2019-05-22T18:33:16.740Z,1.40
2019-05-22T18:35:22.374Z,1.40
2019-05-22T18:37:27.885Z,1.50
2019-05-22T18:39:33.871Z,1.70
2019-05-22T18:41:39.322Z,1.60
2019-05-22T18:43:45.123Z,1.65
2019-05-22T18:45:50.985Z,1.60
2019-05-22T18:47:56.923Z,1.82
2019-05-22T18:50:02.331Z,1.50
2019-05-22T18:52:07.951Z,1.47
2019-05-22T18:54:13.386Z,1.37
2019-05-22T18:56:19.085Z,1.70
2019-05-22T18:58:24.623Z,2.45
2019-05-22T19:00:31.850Z,1.60
2019-05-22T19:02:37.359Z,1.90
2019-05-22T19:04:42.797Z,1.72
2019-05-22T19:06:48.370Z,2.00
2019-05-22T19:08:53.926Z,1.70
2019-05-22T19:10:59.429Z,1.90
2019-05-22T19:13:05.152Z,1.50
2019-05-22T19:15:10.715Z,2.25
2019-05-22T19:17:16.678Z,2.02
2019-05-22T19:19:22.214Z,2.30
2019-05-22T19:21:27.772Z,1.75
2019-05-22T19:23:33.170Z,2.00
2019-05-22T19:25:38.794Z,2.20
2019-05-22T19:27:44.406Z,1.90
2019-05-22T19:29:49.787Z,1.50
2019-05-22T19:31:55.710Z,1.80
2019-05-22T19:34:01.087Z,2.08
2019-05-22T19:36:07.339Z,2.00
2019-05-22T19:38:14.108Z,2.00
2019-05-22T19:40:19.995Z,1.60
2019-05-22T19:42:25.378Z,2.08
2019-05-22T19:44:30.934Z,1.60
2019-05-22T19:46:36.448Z,1.70
2019-05-22T19:48:42.538Z,2.20
2019-05-22T19:50:48.039Z,2.52
2019-05-22T19:52:57.577Z,2.02
2019-05-22T19:55:06.955Z,1.55
2019-05-22T19:57:12.183Z,1.85
2019-05-22T19:59:18.236Z,1.72
2019-05-22T20:01:23.739Z,2.83
2019-05-22T20:03:29.352Z,1.70
2019-05-22T20:05:35.188Z,1.50
2019-05-22T20:07:40.943Z,1.80
2019-05-22T20:09:47.298Z,2.00
2019-05-22T20:11:54.531Z,2.20
2019-05-22T20:13:59.914Z,2.10
2019-05-22T20:16:05.522Z,1.92
2019-05-22T20:18:11.763Z,2.25
2019-05-22T20:20:19.405Z,1.90
2019-05-22T20:22:25.912Z,1.35
2019-05-22T20:24:31.478Z,1.85
2019-05-22T20:26:36.879Z,1.82
2019-05-22T20:28:42.767Z,2.60
2019-05-22T20:30:48.769Z,2.15
2019-05-22T20:32:54.392Z,1.50
2019-05-22T20:34:59.982Z,2.17
2019-05-22T20:37:06.576Z,1.70
2019-05-22T20:39:14.631Z,2.00
2019-05-22T20:41:21.194Z,2.05
2019-05-22T20:43:27.527Z,1.50
2019-05-22T20:45:33.480Z,2.05
2019-05-22T20:47:41.895Z,2.25
2019-05-22T20:49:47.841Z,2.00
2019-05-22T20:51:53.642Z,1.72
2019-05-22T20:54:00.024Z,2.30
2019-05-22T20:56:06.474Z,2.20
2019-05-22T20:58:13.482Z,1.70
2019-05-22T21:00:20.934Z,2.20
2019-05-22T21:02:27.168Z,2.02
2019-05-22T21:04:33.245Z,2.05
2019-05-22T21:06:48.427Z,2.20
2019-05-22T21:08:54.462Z,2.20
2019-05-22T21:11:01.463Z,2.95
2019-05-22T21:13:08.379Z,1.90
2019-05-22T21:15:14.067Z,1.80
2019-05-22T21:17:19.533Z,2.25
2019-05-22T21:19:26.839Z,2.17
2019-05-22T21:21:32.468Z,2.47
2019-05-22T21:23:38.684Z,1.55
2019-05-22T21:25:44.698Z,1.98
2019-05-22T21:27:50.609Z,3.10
2019-05-22T21:29:57.307Z,2.40
2019-05-22T21:32:04.046Z,1.92
2019-05-22T21:34:09.475Z,2.42
2019-05-22T21:36:16.279Z,1.85
2019-05-22T21:38:22.833Z,2.00
2019-05-22T21:40:28.788Z,2.08
2019-05-22T21:42:36.450Z,2.40
2019-05-22T21:44:42.233Z,2.50
2019-05-22T21:46:47.972Z,2.45
2019-05-22T21:48:56.073Z,1.98
2019-05-22T21:51:05.421Z,2.47
2019-05-22T21:53:14.882Z,2.22
2019-05-22T21:55:21.884Z,2.45
2019-05-22T21:57:27.515Z,2.40
2019-05-22T21:59:34.821Z,2.60
2019-05-22T22:01:48.294Z,2.20
2019-05-22T22:03:58.338Z,2.55
2019-05-22T22:06:04.940Z,2.10
2019-05-22T22:08:11.446Z,2.45
2019-05-22T22:10:17.286Z,2.62
2019-05-22T22:12:24.894Z,2.60
2019-05-22T22:14:30.738Z,2.40
2019-05-22T22:16:36.216Z,2.42
2019-05-22T22:18:42.358Z,1.87
2019-05-22T22:20:48.911Z,2.20
2019-05-22T22:22:55.316Z,2.55
2019-05-22T22:25:00.706Z,2.00
2019-05-22T22:27:07.587Z,2.22
2019-05-22T22:29:13.289Z,2.33
2019-05-22T22:31:21.066Z,2.62
2019-05-22T22:33:29.028Z,2.05
2019-05-22T22:35:34.554Z,2.37
2019-05-22T22:37:40.026Z,2.00
2019-05-22T22:39:49.530Z,2.58
2019-05-22T22:41:57.394Z,2.40
2019-05-22T22:44:05.270Z,2.25
2019-05-22T22:46:22.969Z,2.60
2019-05-22T22:48:32.260Z,2.60
2019-05-22T22:50:38.623Z,2.42
2019-05-22T22:52:45.890Z,2.10
2019-05-22T22:54:52.458Z,2.30
2019-05-22T22:56:59.003Z,1.95
2019-05-22T22:59:07.083Z,2.30
2019-05-22T23:01:17.614Z,2.22
2019-05-22T23:03:26.562Z,2.50
2019-05-22T23:05:34.576Z,2.30
2019-05-22T23:07:41.807Z,2.47
2019-05-22T23:09:48.583Z,2.10
2019-05-22T23:11:55.119Z,1.92
2019-05-22T23:14:03.124Z,1.85
2019-05-22T23:16:09.362Z,2.70
2019-05-22T23:18:30.013Z,2.55
2019-05-22T23:20:34.087Z,2.62
2019-05-22T23:22:38.170Z,2.25
